Time;durP1;ratioP1;P1;durP2;ratioP2;P2;SDS_P1;SDS_P2;PMS_P1;PMS_P2;Temp;Humidity;BMP_temperature;BMP_pressure;BME280_temperature;BME280_humidity;BME280_pressure;Samples;Min_cycle;Max_cycle;Signal;HPM_P1;HPM_P2
2023/02/21 02:13:53;;;;;;;2.50;2.23;;;;;;;;;;6211504;23;20453;-88
2023/02/21 02:16:23;;;;;;;5.40;2.13;;;;;;;;;;6211486;23;20453;-87
2023/02/21 02:18:59;;;;;;;3.23;2.10;;;;;;;;;;6211780;23;20790;-87
2023/02/21 02:21:36;;;;;;;4.87;2.27;;;;;;;;;;6213145;23;20430;-88
2023/02/21 02:24:16;;;;;;;3.50;2.83;;;;;;;;;;6214057;23;20391;-84
2023/02/21 02:27:01;;;;;;;2.63;2.03;;;;;;;;;;6213594;23;20395;-85
2023/02/21 02:29:39;;;;;;;3.37;2.33;;;;;;;;;;6216305;23;20408;-82
2023/02/21 02:32:26;;;;;;;2.23;2.03;;;;;;;;;;6217543;23;20413;-87
2023/02/21 02:34:56;;;;;;;2.17;1.97;;;;;;;;;;6216425;23;20446;-89
2023/02/21 02:37:27;;;;;;;1.80;1.70;;;;;;;;;;6222139;23;20448;-85
2023/02/21 02:39:58;;;;;;;3.00;2.70;;;;;;;;;;6223076;23;20411;-87
2023/02/21 02:42:36;;;;;;;2.33;2.07;;;;;;;;;;6222098;23;20471;-88
2023/02/21 02:45:06;;;;;;;4.73;2.90;;;;;;;;;;6217323;23;20398;-85
2023/02/21 02:47:35;;;;;;;6.63;2.40;;;;;;;;;;6215298;23;20379;-84
2023/02/21 02:50:04;;;;;;;2.13;1.90;;;;;;;;;;6217556;23;20391;-86
2023/02/21 02:52:31;;;;;;;2.33;2.00;;;;;;;;;;6218321;23;20539;-88
2023/02/21 02:54:59;;;;;;;4.93;4.23;;;;;;;;;;6217448;23;20975;-84
2023/02/21 02:57:27;;;;;;;3.73;3.43;;;;;;;;;;6217218;23;20417;-86
2023/02/21 02:59:54;;;;;;;3.07;2.10;;;;;;;;;;6214328;23;20415;-86
2023/02/21 03:02:35;;;;;;;3.27;2.30;;;;;;;;;;6214674;23;20416;-87
2023/02/21 03:05:18;;;;;;;2.60;2.03;;;;;;;;;;6217201;23;20421;-85
2023/02/21 03:07:48;;;;;;;3.03;2.77;;;;;;;;;;6218362;23;20395;-88
2023/02/21 03:10:19;;;;;;;3.37;2.13;;;;;;;;;;6227469;23;20456;-92
2023/02/21 03:12:49;;;;;;;3.10;2.37;;;;;;;;;;6225941;23;20438;-84
2023/02/21 03:15:19;;;;;;;2.80;2.40;;;;;;;;;;6225208;23;20912;-85
2023/02/21 03:17:49;;;;;;;2.80;2.40;;;;;;;;;;6226162;23;20936;-88
2023/02/21 03:20:19;;;;;;;3.03;2.10;;;;;;;;;;6224760;23;20392;-82
2023/02/21 03:22:47;;;;;;;1.90;1.80;;;;;;;;;;6225487;23;20587;-81
2023/02/21 03:25:14;;;;;;;3.00;2.37;;;;;;;;;;6223574;23;20486;-82
2023/02/21 03:27:42;;;;;;;5.67;2.27;;;;;;;;;;6225169;23;20478;-81
2023/02/21 03:30:10;;;;;;;3.17;2.27;;;;;;;;;;6221786;23;20773;-84
2023/02/21 03:32:39;;;;;;;4.47;2.20;;;;;;;;;;6222367;23;20792;-83
2023/02/21 03:35:07;;;;;;;3.20;2.53;;;;;;;;;;6227106;23;20491;-85
2023/02/21 03:37:36;;;;;;;2.57;2.03;;;;;;;;;;6225443;23;20415;-84
2023/02/21 03:40:04;;;;;;;3.00;1.80;;;;;;;;;;6228268;23;20407;-83
2023/02/21 03:42:32;;;;;;;3.47;2.40;;;;;;;;;;6228141;23;20441;-85
2023/02/21 03:44:59;;;;;;;3.17;2.30;;;;;;;;;;6228998;23;20501;-84
2023/02/21 03:47:26;;;;;;;5.33;2.07;;;;;;;;;;6226375;23;20474;-83
2023/02/21 03:49:53;;;;;;;8.77;2.40;;;;;;;;;;6228048;23;20486;-83
2023/02/21 03:52:20;;;;;;;2.50;2.37;;;;;;;;;;6230451;23;20502;-87
2023/02/21 03:54:48;;;;;;;2.13;1.90;;;;;;;;;;6223796;23;20510;-88
2023/02/21 03:57:16;;;;;;;2.60;2.40;;;;;;;;;;6217046;23;20400;-83
2023/02/21 03:59:43;;;;;;;1.90;1.80;;;;;;;;;;6218926;23;20407;-87
2023/02/21 04:02:10;;;;;;;3.40;2.27;;;;;;;;;;6216927;23;20442;-86
2023/02/21 04:04:37;;;;;;;5.03;2.90;;;;;;;;;;6212425;23;20449;-91
2023/02/21 04:07:04;;;;;;;2.93;2.33;;;;;;;;;;6216716;23;20907;-80
2023/02/21 04:09:31;;;;;;;3.80;2.07;;;;;;;;;;6228609;23;20598;-84
2023/02/21 04:11:59;;;;;;;3.77;2.50;;;;;;;;;;6212790;23;20407;-85
2023/02/21 04:14:26;;;;;;;3.33;2.77;;;;;;;;;;6219173;23;20459;-82
2023/02/21 04:16:54;;;;;;;4.20;2.70;;;;;;;;;;6214046;23;20391;-89
2023/02/21 04:19:21;;;;;;;2.93;1.80;;;;;;;;;;6209620;23;20422;-88
2023/02/21 04:21:48;;;;;;;7.00;2.30;;;;;;;;;;6209729;23;20956;-87
2023/02/21 04:24:15;;;;;;;4.17;2.63;;;;;;;;;;6209536;23;20408;-80
2023/02/21 04:26:42;;;;;;;2.87;2.30;;;;;;;;;;6209510;23;20423;-78
2023/02/21 04:29:10;;;;;;;3.57;2.20;;;;;;;;;;6208810;23;20498;-86
2023/02/21 04:31:37;;;;;;;2.13;2.00;;;;;;;;;;6208625;23;20392;-83
2023/02/21 04:34:05;;;;;;;2.50;2.00;;;;;;;;;;6208912;23;20725;-84
2023/02/21 04:36:32;;;;;;;4.40;2.40;;;;;;;;;;6209107;23;20475;-82
2023/02/21 04:38:59;;;;;;;3.87;2.10;;;;;;;;;;6209148;23;20411;-86
2023/02/21 04:41:27;;;;;;;4.50;2.83;;;;;;;;;;6208937;23;20451;-80
2023/02/21 04:43:54;;;;;;;8.90;2.53;;;;;;;;;;6208986;23;20442;-82
2023/02/21 04:46:23;;;;;;;3.27;2.60;;;;;;;;;;6208659;23;20407;-80
2023/02/21 04:48:51;;;;;;;2.87;2.30;;;;;;;;;;6208279;23;20889;-81
2023/02/21 04:51:20;;;;;;;5.90;2.50;;;;;;;;;;6208282;23;20976;-86
2023/02/21 04:53:47;;;;;;;3.87;2.20;;;;;;;;;;6208178;23;20434;-82
2023/02/21 04:56:14;;;;;;;2.77;2.10;;;;;;;;;;6208674;23;20391;-90
2023/02/21 04:58:42;;;;;;;4.23;2.60;;;;;;;;;;6208684;23;20498;-79
2023/02/21 05:01:11;;;;;;;7.27;2.83;;;;;;;;;;6208679;23;20441;-80
2023/02/21 05:03:39;;;;;;;3.67;2.73;;;;;;;;;;6208359;23;20405;-87
2023/02/21 05:06:06;;;;;;;3.10;2.60;;;;;;;;;;6208974;23;20397;-83
2023/02/21 05:08:33;;;;;;;2.60;2.33;;;;;;;;;;6208916;23;20555;-81
2023/02/21 05:11:01;;;;;;;3.37;2.60;;;;;;;;;;6208052;23;20931;-82
2023/02/21 05:13:28;;;;;;;2.80;2.60;;;;;;;;;;6208292;23;20422;-84
2023/02/21 05:15:58;;;;;;;3.50;2.40;;;;;;;;;;6209268;23;20419;-86
2023/02/21 05:18:27;;;;;;;2.37;2.13;;;;;;;;;;6208846;23;20449;-81
2023/02/21 05:20:56;;;;;;;3.73;3.03;;;;;;;;;;6208498;23;20419;-79
2023/02/21 05:23:34;;;;;;;5.90;2.27;;;;;;;;;;6208619;23;20509;-84
2023/02/21 05:26:01;;;;;;;3.27;2.63;;;;;;;;;;6209055;23;20410;-82
2023/02/21 05:28:29;;;;;;;3.60;2.27;;;;;;;;;;6208710;23;20435;-79
2023/02/21 05:30:56;;;;;;;3.70;2.33;;;;;;;;;;6208378;23;20461;-81
2023/02/21 05:33:23;;;;;;;4.03;2.33;;;;;;;;;;6208643;23;20908;-81
2023/02/21 05:35:50;;;;;;;4.33;2.50;;;;;;;;;;6208641;23;20410;-80
2023/02/21 05:38:19;;;;;;;3.57;2.30;;;;;;;;;;6209071;23;20517;-81
2023/02/21 05:40:47;;;;;;;3.73;3.23;;;;;;;;;;6208966;23;20752;-78
2023/02/21 05:43:14;;;;;;;2.83;2.10;;;;;;;;;;6208602;23;20410;-82
2023/02/21 05:45:41;;;;;;;3.00;2.30;;;;;;;;;;6208721;23;20414;-79
2023/02/21 05:48:09;;;;;;;3.40;2.17;;;;;;;;;;6208186;23;20467;-84
2023/02/21 05:50:38;;;;;;;6.47;2.60;;;;;;;;;;6208451;23;20489;-81
2023/02/21 05:53:05;;;;;;;3.53;2.30;;;;;;;;;;6207604;23;20434;-80
2023/02/21 05:55:34;;;;;;;4.07;2.73;;;;;;;;;;6208736;23;20386;-80
2023/02/21 05:58:01;;;;;;;4.00;2.10;;;;;;;;;;6208941;23;20502;-82
2023/02/21 06:00:29;;;;;;;4.90;2.23;;;;;;;;;;6207943;23;20744;-80
2023/02/21 06:02:56;;;;;;;2.40;1.90;;;;;;;;;;6208382;23;20785;-80
2023/02/21 06:05:24;;;;;;;3.33;2.63;;;;;;;;;;6208505;23;20578;-82
2023/02/21 06:07:51;;;;;;;4.13;2.03;;;;;;;;;;6208124;23;20814;-84
2023/02/21 06:10:19;;;;;;;4.67;2.77;;;;;;;;;;6208312;23;20570;-80
2023/02/21 06:12:47;;;;;;;4.30;2.27;;;;;;;;;;6208435;23;20788;-80
2023/02/21 06:15:14;;;;;;;3.13;2.00;;;;;;;;;;6209937;23;20905;-84
2023/02/21 06:17:41;;;;;;;3.03;2.47;;;;;;;;;;6210972;23;20425;-80
2023/02/21 06:20:09;;;;;;;2.17;1.97;;;;;;;;;;6218454;23;20411;-82
2023/02/21 06:22:36;;;;;;;7.90;2.00;;;;;;;;;;6219353;23;20443;-87
2023/02/21 06:25:03;;;;;;;3.40;2.27;;;;;;;;;;6220423;23;20543;-81
2023/02/21 06:27:31;;;;;;;6.00;2.13;;;;;;;;;;6228298;23;20421;-85
2023/02/21 06:29:59;;;;;;;7.57;2.30;;;;;;;;;;6222615;23;20415;-83
2023/02/21 06:32:27;;;;;;;3.67;1.90;;;;;;;;;;6217582;23;20403;-80
2023/02/21 06:34:54;;;;;;;9.80;2.60;;;;;;;;;;6218920;23;20403;-86
2023/02/21 06:37:21;;;;;;;4.10;2.00;;;;;;;;;;6216702;23;21055;-86
2023/02/21 06:39:48;;;;;;;6.80;2.30;;;;;;;;;;6214954;23;20417;-88
2023/02/21 06:42:16;;;;;;;3.90;2.10;;;;;;;;;;6212379;23;20439;-80
2023/02/21 06:44:44;;;;;;;4.30;2.00;;;;;;;;;;6211078;23;20407;-87
2023/02/21 06:47:12;;;;;;;6.10;2.77;;;;;;;;;;6213512;23;20900;-88
2023/02/21 06:49:39;;;;;;;2.93;2.20;;;;;;;;;;6215922;23;20403;-87
2023/02/21 06:52:10;;;;;;;3.80;2.70;;;;;;;;;;6215636;23;20466;-84
2023/02/21 06:54:37;;;;;;;5.43;1.90;;;;;;;;;;6216213;23;20647;-87
2023/02/21 06:57:04;;;;;;;3.83;2.43;;;;;;;;;;6218167;23;20415;-84
2023/02/21 06:59:31;;;;;;;2.23;2.03;;;;;;;;;;6212477;23;20403;-84
2023/02/21 07:01:58;;;;;;;5.07;2.47;;;;;;;;;;6212793;23;20499;-81
2023/02/21 07:04:27;;;;;;;2.87;2.20;;;;;;;;;;6219224;23;20536;-84
2023/02/21 07:06:54;;;;;;;5.07;2.30;;;;;;;;;;6220347;23;20990;-85
2023/02/21 07:09:21;;;;;;;3.90;1.93;;;;;;;;;;6226670;23;20526;-84
2023/02/21 07:11:48;;;;;;;7.03;2.23;;;;;;;;;;6222661;23;20939;-86
2023/02/21 07:14:16;;;;;;;4.80;3.20;;;;;;;;;;6227624;23;20426;-80
2023/02/21 07:16:43;;;;;;;3.27;2.13;;;;;;;;;;6231534;23;20957;-79
2023/02/21 07:19:14;;;;;;;3.53;2.07;;;;;;;;;;6212123;23;20496;-80
2023/02/21 07:21:43;;;;;;;5.03;2.33;;;;;;;;;;6213720;23;20489;-78
2023/02/21 07:24:10;;;;;;;4.33;2.30;;;;;;;;;;6212239;23;20407;-79
2023/02/21 07:26:37;;;;;;;3.00;2.70;;;;;;;;;;6211118;23;20421;-79
2023/02/21 07:29:04;;;;;;;3.60;2.50;;;;;;;;;;6213612;23;20411;-79
2023/02/21 07:31:32;;;;;;;2.23;1.93;;;;;;;;;;6210600;23;20502;-78
2023/02/21 07:33:59;;;;;;;2.83;2.03;;;;;;;;;;6210374;23;20494;-78
2023/02/21 07:36:26;;;;;;;2.20;1.97;;;;;;;;;;6209826;23;20996;-78
2023/02/21 07:38:54;;;;;;;2.63;2.07;;;;;;;;;;6210131;23;20727;-78
2023/02/21 07:41:21;;;;;;;6.83;2.20;;;;;;;;;;6210302;23;20486;-78
2023/02/21 07:43:49;;;;;;;5.47;2.20;;;;;;;;;;6210568;23;20434;-78
2023/02/21 07:46:18;;;;;;;4.50;2.00;;;;;;;;;;6211582;23;20505;-78
2023/02/21 07:48:45;;;;;;;3.30;1.93;;;;;;;;;;6211002;23;20412;-78
2023/02/21 07:51:12;;;;;;;3.77;2.20;;;;;;;;;;6216773;23;20434;-78
2023/02/21 07:53:39;;;;;;;5.03;2.60;;;;;;;;;;6219191;23;20833;-78
2023/02/21 07:56:08;;;;;;;3.67;2.40;;;;;;;;;;6220083;23;20415;-79
2023/02/21 07:58:36;;;;;;;4.73;2.50;;;;;;;;;;6220302;23;20470;-79
2023/02/21 08:01:03;;;;;;;3.40;2.33;;;;;;;;;;6213643;23;20754;-78
2023/02/21 08:03:30;;;;;;;7.80;2.90;;;;;;;;;;6209978;23;20449;-78
2023/02/21 08:05:58;;;;;;;2.47;1.87;;;;;;;;;;6211392;23;20491;-78
2023/02/21 08:08:25;;;;;;;5.43;2.10;;;;;;;;;;6209830;23;20461;-78
2023/02/21 08:10:52;;;;;;;4.53;2.10;;;;;;;;;;6209912;23;20642;-78
2023/02/21 08:13:20;;;;;;;2.43;2.23;;;;;;;;;;6210186;23;20403;-78
2023/02/21 08:15:48;;;;;;;2.53;2.33;;;;;;;;;;6209645;23;20414;-78
2023/02/21 08:18:18;;;;;;;4.13;2.57;;;;;;;;;;6210136;23;20399;-78
2023/02/21 08:20:45;;;;;;;6.17;2.70;;;;;;;;;;6212141;23;20403;-78
2023/02/21 08:23:12;;;;;;;4.07;3.00;;;;;;;;;;6209896;23;20449;-78
2023/02/21 08:25:39;;;;;;;3.50;2.50;;;;;;;;;;6208051;23;20407;-77
2023/02/21 08:28:06;;;;;;;7.87;2.50;;;;;;;;;;6207770;23;20411;-76
2023/02/21 08:30:35;;;;;;;3.93;2.23;;;;;;;;;;6207134;23;20415;-76
2023/02/21 08:33:02;;;;;;;3.13;2.70;;;;;;;;;;6207603;23;20508;-77
2023/02/21 08:35:29;;;;;;;2.53;2.33;;;;;;;;;;6207504;23;20410;-77
2023/02/21 08:38:01;;;;;;;2.13;1.93;;;;;;;;;;6206847;23;20419;-77
2023/02/21 08:40:29;;;;;;;3.47;2.20;;;;;;;;;;6207008;23;20410;-76
2023/02/21 08:42:57;;;;;;;3.70;2.10;;;;;;;;;;6207192;23;20497;-76
2023/02/21 08:45:25;;;;;;;4.83;2.87;;;;;;;;;;6207361;23;21004;-76
2023/02/21 08:47:54;;;;;;;5.77;2.80;;;;;;;;;;6207061;23;20418;-77
2023/02/21 08:50:22;;;;;;;5.53;2.60;;;;;;;;;;6207608;23;20398;-77
2023/02/21 08:52:51;;;;;;;6.80;2.97;;;;;;;;;;6207467;23;20427;-77
2023/02/21 08:55:19;;;;;;;4.97;2.47;;;;;;;;;;6207529;23;20427;-77
2023/02/21 08:57:46;;;;;;;4.10;2.37;;;;;;;;;;6208439;23;20619;-77
2023/02/21 09:00:14;;;;;;;3.03;2.70;;;;;;;;;;6212591;23;20648;-77
2023/02/21 09:02:41;;;;;;;8.23;2.43;;;;;;;;;;6211841;23;20453;-77
2023/02/21 09:05:11;;;;;;;8.03;3.00;;;;;;;;;;6208010;23;20403;-76
2023/02/21 09:07:38;;;;;;;3.70;2.60;;;;;;;;;;6206976;23;20474;-77
2023/02/21 09:10:06;;;;;;;2.80;2.50;;;;;;;;;;6208031;23;20446;-77
2023/02/21 09:12:33;;;;;;;2.80;2.23;;;13.60;99.90;;;;;;6208546;23;20407;-77
2023/02/21 09:14:59;;;;;;;2.30;2.00;;;13.90;99.90;;;;;;6207115;23;20418;-77
2023/02/21 09:17:26;;;;;;;6.83;2.60;;;13.90;99.90;;;;;;6207671;23;20415;-76
2023/02/21 09:19:53;;;;;;;3.33;3.03;;;12.70;99.90;;;;;;6207445;23;20410;-76
2023/02/21 09:22:21;;;;;;;5.90;3.77;;;12.00;99.90;;;;;;6207459;23;20443;-76
2023/02/21 09:24:48;;;;;;;4.50;2.57;;;12.50;99.90;;;;;;6207323;23;20761;-76
2023/02/21 09:27:16;;;;;;;5.97;2.53;;;14.40;99.90;;;;;;6207895;23;20497;-76
2023/02/21 09:29:43;;;;;;;3.03;2.30;;;13.80;99.90;;;;;;6207750;23;20413;-76
2023/02/21 09:32:10;;;;;;;4.33;2.10;;;13.20;99.90;;;;;;6207368;23;20748;-77
2023/02/21 09:34:37;;;;;;;2.70;1.73;;;13.20;99.90;;;;;;6207086;23;20713;-76
2023/02/21 09:37:05;;;;;;;9.40;3.37;;;12.50;99.90;;;;;;6208277;23;20430;-77
2023/02/21 09:39:33;;;;;;;5.57;2.47;;;13.10;99.90;;;;;;6208422;23;20395;-76
2023/02/21 09:42:00;;;;;;;4.60;2.53;;;14.70;99.90;;;;;;6208168;23;20398;-76
2023/02/21 09:44:29;;;;;;;2.90;2.30;;;15.60;99.90;;;;;;6207919;23;20419;-76
2023/02/21 09:46:59;;;;;;;3.50;2.10;;;14.20;99.90;;;;;;6207809;23;20415;-76
2023/02/21 09:49:28;;;;;;;3.60;2.33;;;13.60;99.90;;;;;;6208833;23;20391;-76
2023/02/21 09:51:56;;;;;;;2.97;2.30;;;13.40;99.90;;;;;;6211042;23;20439;-77
2023/02/21 09:54:28;;;;;;;1.47;1.37;;;14.80;99.90;;;;;;6209183;23;20770;-77
2023/02/21 09:57:00;;;;;;;3.70;1.80;;;13.40;99.90;;;;;;6209777;23;20928;-76
2023/02/21 09:59:27;;;;;;;3.83;1.50;;;13.50;99.90;;;;;;6209126;23;20411;-77
2023/02/21 10:02:06;;;;;;;2.17;1.90;;;13.20;99.90;;;;;;6209422;23;20461;-77
2023/02/21 10:04:53;;;;;;;4.37;1.50;;;13.90;99.90;;;;;;6209188;23;20976;-77
2023/02/21 10:07:27;;;;;;;1.73;1.40;;;14.60;99.90;;;;;;6209141;23;20729;-76
2023/02/21 10:09:59;;;;;;;2.20;1.63;;;13.70;99.90;;;;;;6214673;22;20513;-74
2023/02/21 10:12:31;;;;;;;5.70;1.77;;;13.70;99.90;;;;;;6226850;22;20484;-76
2023/02/21 10:15:14;;;;;;;1.93;1.73;;;13.90;99.90;;;;;;6211756;23;20422;-79
2023/02/21 10:17:47;;;;;;;3.30;1.60;;;14.30;99.90;;;;;;6209777;23;20426;-79
2023/02/21 10:20:19;;;;;;;4.60;1.60;;;13.40;99.90;;;;;;6210407;23;20896;-78
2023/02/21 10:22:48;;;;;;;3.23;1.47;;;14.00;99.90;;;;;;6211204;23;20435;-78
2023/02/21 10:25:22;;;;;;;2.80;1.53;;;14.10;99.90;;;;;;6210484;23;20402;-78
2023/02/21 10:27:53;;;;;;;3.63;2.27;;;14.50;99.90;;;;;;6209931;23;20422;-77
2023/02/21 10:30:29;;;;;;;2.47;1.70;;;13.90;99.90;;;;;;6209793;23;20392;-78
2023/02/21 10:32:56;;;;;;;2.27;1.30;;;15.40;99.90;;;;;;6210322;23;20943;-78
2023/02/21 10:35:23;;;;;;;1.50;1.40;;;16.00;99.90;;;;;;6211961;23;20407;-78
2023/02/21 10:37:53;;;;;;;3.00;2.70;;;16.70;99.90;;;;;;6210889;23;21078;-79
2023/02/21 10:40:29;;;;;;;1.30;1.20;;;15.30;99.90;;;;;;6211345;23;20418;-78
2023/02/21 10:43:04;;;;;;;7.03;2.03;;;16.00;99.90;;;;;;6223187;23;20441;-80
2023/02/21 10:45:35;;;;;;;1.73;1.30;;;15.50;99.90;;;;;;6228723;22;20398;-80
2023/02/21 10:48:05;;;;;;;1.70;1.60;;;15.30;99.90;;;;;;6223605;23;20469;-80
2023/02/21 10:50:42;;;;;;;3.27;1.80;;;14.90;99.90;;;;;;6216770;23;20407;-77
2023/02/21 10:53:21;;;;;;;1.93;1.57;;;15.00;99.90;;;;;;6179719;23;20952;-76
2023/02/21 10:56:07;;;;;;;3.20;2.90;;;;;;;;;;6179047;23;20376;-77
2023/02/21 10:58:35;;;;;;;2.37;1.50;;;;;;;;;;6179245;23;20539;-77
2023/02/21 11:01:12;;;;;;;3.20;1.70;;;;;;;;;;6178541;23;20411;-76
2023/02/21 11:03:43;;;;;;;1.77;1.40;;;;;;;;;;6181489;23;20446;-77
2023/02/21 11:06:11;;;;;;;1.70;1.40;;;;;;;;;;6182410;23;20940;-78
2023/02/21 11:08:39;;;;;;;2.23;1.70;;;;;;;;;;6183053;23;20412;-79
2023/02/21 11:11:06;;;;;;;4.43;1.97;;;;;;;;;;6178949;23;20396;-78
2023/02/21 11:13:35;;;;;;;3.93;1.90;;;;;;;;;;6179105;23;20432;-80
2023/02/21 11:16:11;;;;;;;2.97;2.13;;;;;;;;;;6180767;23;20415;-75
2023/02/21 11:18:38;;;;;;;2.53;1.83;;;;;;;;;;6194767;23;20431;-80
2023/02/21 11:21:11;;;;;;;3.20;1.77;;;;;;;;;;6197971;23;20871;-83
2023/02/21 11:23:45;;;;;;;2.73;1.60;;;;;;;;;;6178737;23;20447;-88
2023/02/21 11:26:14;;;;;;;3.60;1.77;;;20.30;99.90;;;;;;6193158;23;20980;-78
2023/02/21 11:28:43;;;;;;;1.60;1.40;;;17.60;99.90;;;;;;6206182;23;20439;-79
2023/02/21 11:31:16;;;;;;;1.60;1.47;;;16.60;99.90;;;;;;6205330;23;20385;-80
2023/02/21 11:33:51;;;;;;;3.27;2.33;;;19.40;99.90;;;;;;6204767;23;20436;-81
2023/02/21 11:36:20;;;;;;;8.50;2.70;;;19.90;99.90;;;;;;6225271;22;20453;-80
2023/02/21 11:39:01;;;;;;;4.90;1.90;;;18.80;99.90;;;;;;6232173;23;20454;-79
2023/02/21 11:44:23;;;;;;;3.07;1.80;;;17.10;99.90;;;;;;6224207;22;20442;-83
2023/02/21 11:52:06;;;;;;;1.63;1.53;;;18.20;99.90;;;;;;6181579;23;20595;-83
2023/02/21 11:54:33;;;;;;;3.27;1.50;;;23.10;99.90;;;;;;6179555;23;20483;-86
2023/02/21 11:57:05;;;;;;;4.00;1.50;;;21.30;99.90;;;;;;6178980;23;20408;-88
2023/02/21 12:04:59;;;;;;;4.00;1.90;;;18.40;99.90;;;;;;6184311;23;20462;-86
2023/02/21 12:07:35;;;;;;;3.50;1.63;;;21.10;99.90;;;;;;6180518;23;20404;-85
2023/02/21 12:10:03;;;;;;;2.80;1.67;;;;;;;;;;6178195;23;20391;-86
2023/02/21 12:12:41;;;;;;;2.17;1.73;;;;;;;;;;6177910;23;20410;-85
2023/02/21 12:15:14;;;;;;;3.63;2.23;;;;;;;;;;6177857;23;20403;-89
2023/02/21 12:17:51;;;;;;;1.93;1.30;;;;;;;;;;6178448;23;20391;-84
2023/02/21 12:20:24;;;;;;;2.23;1.67;;;;;;;;;;6177630;23;20454;-84
2023/02/21 12:23:08;;;;;;;2.57;1.70;;;;;;;;;;6177284;23;20482;-85
2023/02/21 12:25:41;;;;;;;2.43;1.60;;;;;;;;;;6196581;23;20407;-79
2023/02/21 12:28:15;;;;;;;1.80;1.57;;;;;;;;;;6213853;23;20419;-81
2023/02/21 12:30:55;;;;;;;2.73;1.70;;;;;;;;;;6213025;23;20499;-81
2023/02/21 12:33:27;;;;;;;2.33;1.70;;;;;;;;;;6177733;23;20462;-86
2023/02/21 12:36:04;;;;;;;3.73;2.07;;;;;;;;;;6176972;23;21066;-85
2023/02/21 12:38:35;;;;;;;3.10;1.67;;;;;;;;;;6178400;23;20412;-82
2023/02/21 12:41:04;;;;;;;2.20;1.80;;;;;;;;;;6178729;23;20421;-80
2023/02/21 12:43:37;;;;;;;2.13;1.50;;;;;;;;;;6177935;23;21008;-80
2023/02/21 12:46:11;;;;;;;1.83;1.73;;;;;;;;;;6178281;23;20398;-80
2023/02/21 12:48:41;;;;;;;2.73;1.40;;;;;;;;;;6177582;23;20407;-80
2023/02/21 12:51:09;;;;;;;2.80;1.53;;;;;;;;;;6177585;23;20904;-79
2023/02/21 12:53:42;;;;;;;3.60;1.77;;;;;;;;;;6180671;23;20460;-79
2023/02/21 12:56:12;;;;;;;1.53;1.40;;;;;;;;;;6185803;23;20398;-80
2023/02/21 12:58:42;;;;;;;3.63;1.70;;;;;;;;;;6181526;23;20499;-78
2023/02/21 13:01:16;;;;;;;1.83;1.30;;;;;;;;;;6177790;23;20487;-80
2023/02/21 13:03:50;;;;;;;2.43;2.20;;;;;;;;;;6177624;23;20791;-81
2023/02/21 13:06:20;;;;;;;1.50;1.30;;;;;;;;;;6177107;23;20455;-77
2023/02/21 13:08:54;;;;;;;1.57;1.43;;;;;;;;;;6178935;23;20441;-78
2023/02/21 13:11:25;;;;;;;2.13;1.40;;;;;;;;;;6183073;23;20388;-81
2023/02/21 13:13:52;;;;;;;3.20;1.80;;;;;;;;;;6178170;23;20429;-85
2023/02/21 13:16:20;;;;;;;2.97;1.57;;;;;;;;;;6178664;23;20434;-85
2023/02/21 13:18:49;;;;;;;4.83;2.67;;;;;;;;;;6178176;23;20407;-84
2023/02/21 13:21:22;;;;;;;2.07;1.87;;;;;;;;;;6176928;23;20714;-83
2023/02/21 13:26:45;;;;;;;1.87;1.50;;;;;;;;;;6194145;23;20384;-80
2023/02/21 13:29:16;;;;;;;2.57;1.50;;;;;;;;;;6181721;23;20415;-79
2023/02/21 13:31:44;;;;;;;1.80;1.70;;;;;;;;;;6180221;23;20384;-80
2023/02/21 13:34:13;;;;;;;5.90;2.00;;;;;;;;;;6180577;23;20819;-78
2023/02/21 13:36:42;;;;;;;3.20;1.73;;;;;;;;;;6179752;23;20811;-79
2023/02/21 13:39:13;;;;;;;2.33;1.87;;;;;;;;;;6180350;23;20738;-83
2023/02/21 13:41:42;;;;;;;1.77;1.60;;;;;;;;;;6180544;23;20392;-83
2023/02/21 13:44:11;;;;;;;1.77;1.60;;;;;;;;;;6180583;23;20408;-87
2023/02/21 13:46:57;;;;;;;4.23;2.07;;;;;;;;;;6176920;23;20468;-87
2023/02/21 13:49:43;;;;;;;5.53;1.87;;;;;;;;;;6173344;23;20412;-84
2023/02/21 13:52:43;;;;;;;2.27;1.50;;;;;;;;;;6172407;23;20495;-82
2023/02/21 13:55:26;;;;;;;2.90;1.40;;;;;;;;;;6177879;23;20435;-88
2023/02/21 13:58:18;;;;;;;2.00;1.90;;;;;;;;;;6185237;23;20469;-89
2023/02/21 14:00:50;;;;;;;3.30;1.60;;;;;;;;;;6178535;23;20423;-89
2023/02/21 14:08:29;;;;;;;2.77;2.53;;;;;;;;;;6195051;23;20463;-90
2023/02/21 14:10:57;;;;;;;1.80;1.60;;;;;;;;;;6191157;23;20400;-88
2023/02/21 14:13:33;;;;;;;2.40;1.80;;;;;;;;;;6187069;23;20717;-92
2023/02/21 14:16:08;;;;;;;1.77;1.67;;;;;;;;;;6182599;23;20411;-77
2023/02/21 14:18:40;;;;;;;1.40;1.00;;;;;;;;;;6177382;23;20421;-76
2023/02/21 14:21:10;;;;;;;1.90;1.43;;;;;;;;;;6176241;23;20404;-76
2023/02/21 14:23:41;;;;;;;3.23;1.10;;;;;;;;;;6176349;23;20415;-78
2023/02/21 14:26:30;;;;;;;3.20;1.60;;;;;;;;;;6174862;23;20729;-77
2023/02/21 14:29:10;;;;;;;2.90;1.43;;;;;;;;;;6175079;23;20411;-74
2023/02/21 14:34:59;;;;;;;1.20;1.10;;;;;;;;;;6175960;23;20450;-76
2023/02/21 14:37:28;;;;;;;2.90;1.10;;;;;;;;;;6183118;23;20451;-77
2023/02/21 14:39:58;;;;;;;1.73;1.30;;;;;;;;;;6179317;23;20422;-77
2023/02/21 14:42:31;;;;;;;1.20;1.10;;;;;;;;;;6182893;23;20414;-76
2023/02/21 14:45:16;;;;;;;1.67;1.50;;;;;;;;;;6179682;23;20387;-77
2023/02/21 14:47:58;;;;;;;1.50;1.30;;;;;;;;;;6159016;23;20424;-76
2023/02/21 14:50:31;;;;;;;2.40;1.23;;;;;;;;;;6180137;23;20396;-76
2023/02/21 14:53:17;;;;;;;2.13;1.27;;;;;;;;;;6179496;23;20455;-76
2023/02/21 14:56:03;;;;;;;1.20;1.10;;;;;;;;;;6179376;23;20799;-76
2023/02/21 14:58:39;;;;;;;1.53;1.30;;;;;;;;;;6178863;23;20406;-75
2023/02/21 15:01:11;;;;;;;1.97;1.20;;;;;;;;;;6179221;23;20719;-76
2023/02/21 15:03:44;;;;;;;1.20;1.10;;;;;;;;;;6178127;23;20407;-77
2023/02/21 15:06:17;;;;;;;2.40;0.90;;;;;;;;;;6178216;23;21049;-76
2023/02/21 15:08:45;;;;;;;1.03;0.93;;;;;;;;;;6178504;23;20448;-75
2023/02/21 15:11:19;;;;;;;3.57;1.20;;;;;;;;;;6181699;23;20404;-76
2023/02/21 15:13:46;;;;;;;2.43;1.63;;;;;;;;;;6181955;23;20406;-77
2023/02/21 15:16:15;;;;;;;1.80;1.20;;;;;;;;;;6179005;23;20421;-76
2023/02/21 15:18:58;;;;;;;2.37;1.30;;;;;;;;;;6178307;23;20423;-76
2023/02/21 15:21:26;;;;;;;3.50;1.23;;;;;;;;;;6178110;23;20715;-75
2023/02/21 15:24:00;;;;;;;1.30;1.00;;;;;;;;;;6182390;23;20407;-76
2023/02/21 15:26:30;;;;;;;2.03;1.10;;;;;;;;;;6184458;23;20406;-75
2023/02/21 15:29:06;;;;;;;2.03;1.40;;;;;;;;;;6181124;23;20892;-75
2023/02/21 15:31:34;;;;;;;1.47;1.30;;;;;;;;;;6183518;23;20614;-77
2023/02/21 15:34:03;;;;;;;1.23;1.13;;;;;;;;;;6196674;23;20507;-80
2023/02/21 15:36:31;;;;;;;1.33;1.10;;;;;;;;;;6197218;23;20405;-80
2023/02/21 15:39:01;;;;;;;1.50;1.40;;;;;;;;;;6195327;23;20488;-80
2023/02/21 15:41:30;;;;;;;1.53;1.00;;;;;;;;;;6193164;23;20400;-81
2023/02/21 15:43:58;;;;;;;2.10;1.10;;;;;;;;;;6193654;23;20894;-79
2023/02/21 15:46:27;;;;;;;1.43;1.20;;;;;;;;;;6191181;23;20408;-80
2023/02/21 15:48:55;;;;;;;8.13;1.60;;;;;;;;;;6194573;23;20411;-81
2023/02/21 15:51:24;;;;;;;3.13;2.17;;;;;;;;;;6201299;23;20435;-80
2023/02/21 15:54:23;;;;;;;6.70;2.00;;;;;;;;;;6206236;23;20467;-80
2023/02/21 15:57:00;;;;;;;3.87;1.73;;;;;;;;;;6206709;23;20768;-79
2023/02/21 15:59:28;;;;;;;2.83;1.30;;;;;;;;;;6202450;23;20402;-81
2023/02/21 16:02:13;;;;;;;4.60;1.60;;;;;;;;;;6190474;23;20414;-79
2023/02/21 16:04:41;;;;;;;4.00;2.23;;;;;;;;;;6175585;23;20388;-76
2023/02/21 16:07:15;;;;;;;3.87;1.90;;;;;;;;;;6175349;23;20530;-75
2023/02/21 16:09:45;;;;;;;5.00;2.90;;;;;;;;;;6179295;23;20398;-79
2023/02/21 16:12:23;;;;;;;2.30;2.00;;;;;;;;;;6207667;23;20431;-79
2023/02/21 16:14:57;;;;;;;3.40;2.57;;;;;;;;;;6163544;23;20448;-80
2023/02/21 16:17:27;;;;;;;5.50;2.73;;;;;;;;;;6170163;23;20392;-80
2023/02/21 16:19:56;;;;;;;2.70;1.87;;;;;;;;;;6183872;23;20410;-81
2023/02/21 16:22:27;;;;;;;5.13;2.60;;;;;;;;;;6184045;23;20409;-81
2023/02/21 16:25:08;;;;;;;7.70;4.70;;;;;;;;;;6179858;23;20397;-81
2023/02/21 16:27:36;;;;;;;11.27;4.73;;;;;;;;;;6176215;23;20409;-80
2023/02/21 16:30:04;;;;;;;6.53;4.00;;;;;;;;;;6168532;23;20441;-80
2023/02/21 16:32:38;;;;;;;5.77;4.13;;;;;;;;;;6177783;23;20397;-82
2023/02/21 16:35:05;;;;;;;7.00;4.93;;;;;;;;;;6174999;23;20444;-80
2023/02/21 16:37:33;;;;;;;10.90;5.27;;;;;;;;;;6175890;23;20472;-81
2023/02/21 16:40:00;;;;;;;9.87;4.30;;;;;;;;;;6177981;23;20433;-80
2023/02/21 16:42:28;;;;;;;4.67;3.17;;;;;;;;;;6181476;23;20393;-82
2023/02/21 16:45:01;;;;;;;5.70;3.43;;;;;;;;;;6182255;23;20428;-84
2023/02/21 16:47:28;;;;;;;3.00;2.60;;;;;;;;;;6183354;23;20395;-83
2023/02/21 16:49:55;;;;;;;9.43;3.93;;;;;;;;;;6182295;23;20437;-81
2023/02/21 16:52:22;;;;;;;8.80;4.20;;;;;;;;;;6179612;23;20531;-82
2023/02/21 16:54:51;;;;;;;5.17;2.83;;;;;;;;;;6179973;23;20476;-81
2023/02/21 16:57:18;;;;;;;7.73;3.40;;;;;;;;;;6183584;23;20421;-83
2023/02/21 16:59:45;;;;;;;7.43;3.90;;;;;;;;;;6182206;23;20408;-83
2023/02/21 17:02:14;;;;;;;6.67;3.30;;;;;;;;;;6181779;23;20440;-82
2023/02/21 17:04:41;;;;;;;4.33;2.93;;;;;;;;;;6179465;23;20449;-81
2023/02/21 17:07:09;;;;;;;5.00;3.30;;;;;;;;;;6182786;23;20417;-82
2023/02/21 17:09:38;;;;;;;5.83;3.30;;;;;;;;;;6179193;23;20415;-82
2023/02/21 17:12:07;;;;;;;3.60;2.30;;;;;;;;;;6175850;23;20401;-81
2023/02/21 17:14:34;;;;;;;5.80;2.43;;;;;;;;;;6175031;23;20456;-81
2023/02/21 17:17:01;;;;;;;5.53;2.83;;;;;;;;;;6179745;23;20464;-81
2023/02/21 17:19:28;;;;;;;6.30;2.57;;;;;;;;;;6182383;23;20409;-82